createdAt,value
2018-07-11T00:02:34.347Z,100247.00
2018-07-11T00:08:36.269Z,100241.00
2018-07-11T00:11:34.473Z,100234.00
2018-07-11T00:14:51.521Z,100233.00
2018-07-11T00:17:34.446Z,100245.00
2018-07-11T00:20:51.482Z,100245.00
2018-07-11T00:23:34.880Z,100241.00
2018-07-11T00:26:51.913Z,100232.00
2018-07-11T00:29:34.838Z,100236.00
2018-07-11T00:32:35.577Z,100237.00
2018-07-11T00:35:35.873Z,100237.00
2018-07-11T00:38:36.045Z,100234.00
2018-07-11T00:41:34.233Z,100235.00
2018-07-11T00:46:45.003Z,100233.00
2018-07-11T00:49:34.244Z,100233.00
2018-07-11T00:52:51.095Z,100234.00
2018-07-11T00:55:20.252Z,100226.00
2018-07-11T03:00:55.246Z,100230.00
2018-07-11T03:11:34.025Z,100236.00
2018-07-11T04:14:33.380Z,100264.00
2018-07-11T05:22:55.669Z,100259.00
2018-07-11T05:25:37.482Z,100246.00
2018-07-11T05:28:33.145Z,100265.00
2018-07-11T05:37:03.056Z,100267.00
2018-07-11T05:39:36.181Z,100261.00
2018-07-11T05:42:34.771Z,100266.00
2018-07-11T05:48:33.025Z,100261.00
2018-07-11T06:11:57.304Z,100276.00
2018-07-11T06:22:34.590Z,100264.00
2018-07-11T06:28:33.122Z,100265.00
2018-07-11T07:01:35.675Z,100277.00
2018-07-11T07:04:33.631Z,100272.00
2018-07-11T07:22:33.831Z,100280.00
2018-07-11T07:56:34.822Z,100285.00
2018-07-11T08:02:33.428Z,100284.00
2018-07-11T09:17:50.952Z,100271.00
2018-07-11T09:20:42.166Z,100279.00
2018-07-11T09:23:36.310Z,100286.00
2018-07-11T10:14:03.494Z,100256.00
2018-07-11T10:19:37.372Z,100246.00
2018-07-11T10:22:34.218Z,100255.00
2018-07-11T10:28:33.620Z,100248.00
2018-07-11T10:37:45.219Z,100234.00
2018-07-11T10:40:34.302Z,100222.00
2018-07-11T10:43:15.574Z,100232.00
2018-07-11T10:45:44.857Z,100218.00
2018-07-11T10:48:34.943Z,100223.00
2018-07-11T10:57:03.775Z,100224.00
2018-07-11T10:59:36.716Z,100229.00
2018-07-11T11:02:35.228Z,100230.00
2018-07-11T11:12:38.853Z,100227.00
2018-07-11T11:15:34.000Z,100229.00
2018-07-11T11:30:33.846Z,100229.00
2018-07-11T11:42:34.111Z,100212.00
2018-07-11T12:03:14.439Z,100186.00
2018-07-11T12:05:43.669Z,100185.00
2018-07-11T12:08:36.074Z,100178.00
2018-07-11T12:11:34.057Z,100179.00
2018-07-11T12:23:16.023Z,100182.00
2018-07-11T12:26:55.236Z,100180.00
2018-07-11T12:29:36.574Z,100186.00
2018-07-11T12:32:35.432Z,100178.00
2018-07-11T12:38:04.479Z,100179.00
2018-07-11T12:40:37.742Z,100165.00
2018-07-11T12:43:15.370Z,100173.00
2018-07-11T12:51:59.265Z,100170.00
2018-07-11T13:13:16.289Z,100172.00
2018-07-11T13:15:51.552Z,100166.00
2018-07-11T13:18:35.787Z,100168.00
2018-07-11T13:21:34.484Z,100170.00
2018-07-11T13:33:15.075Z,100169.00
2018-07-11T13:35:44.346Z,100174.00
2018-07-11T13:38:15.040Z,100172.00
2018-07-11T13:40:44.383Z,100177.00
2018-07-11T13:43:17.105Z,100169.00
2018-07-11T13:45:46.393Z,100177.00
2018-07-11T13:48:35.063Z,100171.00
2018-07-11T13:51:33.678Z,100178.00
2018-07-11T14:03:14.967Z,100185.00
2018-07-11T14:05:44.595Z,100179.00
2018-07-11T14:08:34.262Z,100170.00
2018-07-11T14:23:20.193Z,100108.00
2018-07-11T14:25:49.443Z,100100.00
2018-07-11T14:28:37.070Z,100097.00
2018-07-11T14:31:35.154Z,100095.00
2018-07-11T14:37:14.079Z,100094.00
2018-07-11T14:39:43.443Z,100093.00
2018-07-11T14:42:35.903Z,100094.00
2018-07-11T14:45:33.825Z,100099.00
2018-07-11T14:48:51.131Z,100107.00
2018-07-11T14:51:37.022Z,100116.00
2018-07-11T14:54:35.229Z,100125.00
2018-07-11T14:57:33.897Z,100143.00
2018-07-11T15:03:15.929Z,100157.00
2018-07-11T15:05:45.370Z,100163.00
2018-07-11T15:08:14.744Z,100161.00
2018-07-11T15:10:43.963Z,100149.00
2018-07-11T15:13:16.829Z,100147.00
2018-07-11T15:15:46.018Z,100148.00
2018-07-11T15:18:34.802Z,100151.00
2018-07-11T15:21:51.999Z,100153.00
2018-07-11T15:24:35.755Z,100165.00
2018-07-11T15:27:34.193Z,100163.00
2018-07-11T15:32:54.472Z,100156.00
2018-07-11T15:35:36.414Z,100157.00
2018-07-11T15:38:34.959Z,100154.00
2018-07-11T15:50:35.966Z,100161.00
2018-07-11T15:53:15.165Z,100151.00
2018-07-11T15:55:44.643Z,100157.00
2018-07-11T15:58:36.382Z,100163.00
2018-07-11T16:01:55.048Z,100163.00
2018-07-11T16:04:39.733Z,100166.00
2018-07-11T16:07:34.018Z,100162.00
2018-07-11T16:13:19.631Z,100169.00
2018-07-11T16:43:14.844Z,100129.00
2018-07-11T17:13:11.977Z,100183.00
2018-07-11T17:23:16.105Z,100235.00
2018-07-11T17:53:14.738Z,100252.00
2018-07-11T18:23:00.394Z,100251.00
2018-07-11T18:41:43.775Z,100259.00
2018-07-11T18:44:36.369Z,100246.00
2018-07-11T18:47:34.351Z,100251.00
2018-07-11T18:53:17.307Z,100260.00
2018-07-11T19:07:46.316Z,100258.00
2018-07-11T19:10:34.742Z,100267.00
2018-07-11T19:19:34.482Z,100258.00
2018-07-11T19:40:26.656Z,100246.00
2018-07-11T19:43:14.622Z,100241.00
2018-07-11T19:46:46.431Z,100248.00
2018-07-11T19:49:35.257Z,100240.00
2018-07-11T20:01:41.515Z,100233.00
2018-07-11T20:07:43.524Z,100225.00
2018-07-11T20:10:35.903Z,100240.00
2018-07-11T20:13:05.503Z,100244.00
2018-07-11T20:15:38.800Z,100243.00
2018-07-11T20:18:35.162Z,100246.00
2018-07-11T20:21:04.370Z,100252.00
2018-07-11T20:23:37.707Z,100243.00
2018-07-11T20:26:34.243Z,100244.00
2018-07-11T20:29:03.504Z,100252.00
2018-07-11T20:31:36.602Z,100251.00
2018-07-11T20:34:34.951Z,100246.00
2018-07-11T20:37:04.274Z,100241.00
2018-07-11T20:39:37.038Z,100241.00
2018-07-11T20:45:34.189Z,100234.00
2018-07-11T20:51:03.059Z,100218.00
2018-07-11T20:53:32.263Z,100226.00
2018-07-11T20:56:01.439Z,100228.00
2018-07-11T20:58:48.122Z,100236.00
2018-07-11T21:01:35.252Z,100240.00
2018-07-11T21:06:29.852Z,100241.00
2018-07-11T21:09:19.454Z,100248.00
2018-07-11T21:16:19.562Z,100241.00
2018-07-11T21:21:48.548Z,100255.00
2018-07-11T21:24:17.794Z,100256.00
2018-07-11T21:26:46.980Z,100253.00
2018-07-11T21:29:16.262Z,100261.00
2018-07-11T21:31:45.473Z,100258.00
2018-07-11T21:34:14.665Z,100247.00
2018-07-11T21:36:43.856Z,100253.00
2018-07-11T21:39:13.393Z,100254.00
2018-07-11T21:41:42.582Z,100259.00
2018-07-11T21:44:11.837Z,100258.00
2018-07-11T21:46:41.234Z,100259.00
2018-07-11T21:49:10.413Z,100267.00
2018-07-11T21:51:39.613Z,100258.00
2018-07-11T21:54:08.820Z,100249.00
2018-07-11T21:56:38.069Z,100241.00
2018-07-11T21:59:07.276Z,100250.00
2018-07-11T22:01:37.374Z,100249.00
2018-07-11T22:04:06.670Z,100248.00
2018-07-11T22:06:35.966Z,100244.00
2018-07-11T22:09:05.362Z,100243.00
2018-07-11T22:11:34.542Z,100245.00
2018-07-11T22:18:19.842Z,100234.00
2018-07-11T22:20:47.505Z,100233.00
2018-07-11T22:23:15.189Z,100226.00
2018-07-11T22:25:42.986Z,100223.00
2018-07-11T22:28:34.948Z,100215.00
2018-07-11T22:31:02.698Z,100227.00
2018-07-11T22:33:30.378Z,100227.00
2018-07-11T22:35:58.043Z,100224.00
2018-07-11T22:38:25.752Z,100219.00
2018-07-11T22:40:53.654Z,100225.00
2018-07-11T22:43:21.331Z,100221.00
2018-07-11T22:45:49.046Z,100221.00
2018-07-11T22:48:16.713Z,100220.00
2018-07-11T22:50:44.372Z,100221.00
2018-07-11T22:53:12.079Z,100226.00
2018-07-11T22:55:39.765Z,100231.00
2018-07-11T22:58:07.445Z,100229.00
2018-07-11T23:00:35.136Z,100230.00
2018-07-11T23:03:02.801Z,100226.00
2018-07-11T23:05:30.478Z,100227.00
2018-07-11T23:07:58.177Z,100226.00
2018-07-11T23:10:36.178Z,100225.00
2018-07-11T23:13:03.885Z,100214.00
2018-07-11T23:15:31.570Z,100212.00
2018-07-11T23:17:59.265Z,100212.00
2018-07-11T23:20:26.963Z,100211.00
2018-07-11T23:22:54.637Z,100211.00
2018-07-11T23:25:22.331Z,100198.00
2018-07-11T23:27:50.035Z,100204.00
2018-07-11T23:30:17.725Z,100206.00
2018-07-11T23:32:45.405Z,100211.00
2018-07-11T23:35:13.149Z,100205.00
2018-07-11T23:37:40.838Z,100205.00
2018-07-11T23:40:08.518Z,100201.00
2018-07-11T23:42:36.461Z,100206.00
2018-07-11T23:45:04.129Z,100208.00
2018-07-11T23:47:31.793Z,100208.00
2018-07-11T23:49:59.504Z,100199.00
2018-07-11T23:52:35.705Z,100203.00
2018-07-11T23:55:03.403Z,100202.00
2018-07-11T23:57:31.081Z,100202.00
2018-07-11T23:59:58.742Z,100204.00
